Granite Springs, New York
Current Conditions -  °F | °C
As of 8:53 PM on Friday 24 Oct 2014 (Local Time) from KDXR Reporting Station
Clear Clear  
Wind Chill: 48°   Ceiling: Unl
Heat Index: 48°   Visibility: 10mi
Dew Point: 42°   Wind: 3mph
Humidity: 80%   Direction: 210°SSW
Pressure: 29.82"   Gusts: NA
Location:  41.31°N, 73.76°W
Report Text: KDXR 250053Z 21003KT 10SM CLR 09/06 A2982 RMK AO2 SLP098 T00890056
Loading
Personal Weather Stations






























Interactive Weather Map
Tropical Storm Tracking
New forecast layout! Learn more

10-Day Weather Forecast

Advertisements
Track Severe Weather on mobile